Time;durP1;ratioP1;P1;durP2;ratioP2;P2;SDS_P1;SDS_P2;PMS_P1;PMS_P2;Temp;Humidity;BMP_temperature;BMP_pressure;BME280_temperature;BME280_humidity;BME280_pressure;Samples;Min_cycle;Max_cycle;Signal;HPM_P1;HPM_P2
2021/07/09 00:02:22;;;;;;;4.30;2.65;;;16.70;96.60;;;16.74;74.80;97883.84;4967880;28;20069;-39
2021/07/09 00:04:50;;;;;;;5.32;3.00;;;16.60;95.50;;;16.80;74.55;97882.22;4969157;28;20055;-40
2021/07/09 00:07:18;;;;;;;5.13;2.53;;;16.60;95.40;;;16.71;74.85;97878.03;4966626;28;20055;-40
2021/07/09 00:09:47;;;;;;;4.88;3.45;;;16.70;95.30;;;16.71;74.97;97873.50;4966315;28;20067;-40
2021/07/09 00:12:15;;;;;;;6.97;3.15;;;16.60;95.40;;;16.53;75.40;97883.88;4967693;28;20059;-40
2021/07/09 00:14:44;;;;;;;4.13;2.97;;;16.50;95.50;;;16.63;75.10;97895.13;4966726;28;20118;-40
2021/07/09 00:17:12;;;;;;;4.88;2.67;;;16.60;95.70;;;16.61;75.04;97891.78;4967111;28;20066;-40
2021/07/09 00:19:41;;;;;;;3.95;2.60;;;16.50;96.10;;;16.57;75.56;97900.44;4967077;28;20039;-40
2021/07/09 00:22:09;;;;;;;3.70;3.08;;;16.50;96.00;;;16.63;75.21;97913.94;4967717;28;20055;-40
2021/07/09 00:24:37;;;;;;;4.13;2.80;;;16.50;96.20;;;16.67;75.28;97915.25;4968080;28;20081;-40
2021/07/09 00:27:06;;;;;;;5.53;3.30;;;16.60;96.00;;;16.51;75.39;97918.16;4966520;28;20357;-40
2021/07/09 00:29:34;;;;;;;3.63;2.83;;;16.40;96.00;;;16.66;75.23;97931.56;4967162;28;20502;-40
2021/07/09 00:32:02;;;;;;;5.15;3.33;;;16.50;96.50;;;16.63;75.25;97927.38;4967563;28;20516;-40
2021/07/09 00:34:30;;;;;;;3.53;2.78;;;16.50;95.70;;;16.56;75.34;97923.00;4968063;28;20069;-40
2021/07/09 00:36:58;;;;;;;5.05;3.63;;;16.40;95.60;;;16.62;75.06;97917.66;4967495;28;20062;-40
2021/07/09 00:39:25;;;;;;;4.15;2.42;;;16.50;95.70;;;16.50;75.15;97924.59;4967332;28;20137;-40
2021/07/09 00:41:53;;;;;;;3.50;2.58;;;16.40;95.60;;;16.64;74.87;97925.53;4966673;28;20061;-40
2021/07/09 00:44:22;;;;;;;2.97;2.38;;;16.50;95.60;;;16.63;74.95;97927.38;4965668;28;20769;-40
2021/07/09 00:46:51;;;;;;;3.42;2.53;;;16.50;95.30;;;16.71;74.58;97929.09;4968093;28;20046;-40
2021/07/09 00:49:20;;;;;;;3.42;2.42;;;16.60;95.00;;;16.75;74.42;97925.03;4966953;28;20043;-40
2021/07/09 00:51:49;;;;;;;4.90;2.75;;;16.60;94.30;;;16.77;74.10;97924.81;4966272;28;20329;-40
2021/07/09 00:54:17;;;;;;;6.22;2.50;;;16.70;94.50;;;16.74;74.35;97926.84;4966574;28;20046;-40
2021/07/09 00:56:47;;;;;;;3.45;2.53;;;16.70;93.60;;;16.70;74.22;97924.75;4966797;28;20062;-40
2021/07/09 00:59:21;;;;;;;4.05;3.08;;;16.60;94.50;;;16.76;74.18;97923.97;4968201;28;20065;-40
2021/07/09 01:01:52;;;;;;;5.35;2.92;;;16.60;94.40;;;16.77;74.23;97925.66;4965868;28;20314;-40
2021/07/09 01:04:21;;;;;;;4.85;3.38;;;16.70;94.70;;;16.82;73.93;97922.41;4965332;28;20050;-40
2021/07/09 01:06:49;;;;;;;4.38;3.22;;;16.70;94.40;;;16.73;74.21;97924.38;4966382;28;20057;-40
2021/07/09 01:09:17;;;;;;;4.00;3.22;;;16.60;94.40;;;16.76;74.33;97923.97;4966425;28;20055;-40
2021/07/09 01:11:48;;;;;;;3.50;2.97;;;16.60;94.60;;;16.69;74.68;97925.78;4966483;28;20064;-40
2021/07/09 01:14:19;;;;;;;6.78;3.72;;;16.50;95.40;;;16.66;74.79;97929.69;4967515;28;20057;-40
2021/07/09 01:16:49;;;;;;;4.95;3.22;;;16.50;95.70;;;16.70;74.78;97927.44;4967614;28;20226;-40
2021/07/09 01:19:21;;;;;;;6.63;3.42;;;16.60;95.70;;;16.59;75.20;97919.91;4965857;28;20046;-40
2021/07/09 01:21:50;;;;;;;8.52;3.72;;;16.50;95.50;;;16.52;75.49;97919.84;4946057;29;20043;-40
2021/07/09 01:24:18;;;;;;;5.57;3.50;;;16.50;95.70;;;16.59;75.10;97920.72;4945818;28;20403;-40
2021/07/09 01:26:46;;;;;;;4.65;3.67;;;16.50;96.20;;;16.57;75.46;97916.56;4947768;29;20068;-40
2021/07/09 01:29:14;;;;;;;3.97;3.50;;;16.50;96.50;;;16.60;75.03;97917.03;4947362;29;20065;-40
2021/07/09 01:31:43;;;;;;;5.25;3.55;;;16.50;96.20;;;16.61;75.03;97923.22;4946059;28;20066;-40
2021/07/09 01:34:11;;;;;;;5.95;3.83;;;16.50;96.00;;;16.51;75.71;97927.06;4946062;29;20059;-40
2021/07/09 01:36:39;;;;;;;5.85;3.70;;;16.40;96.20;;;16.27;76.29;97916.72;4946557;28;20062;-40
2021/07/09 01:39:08;;;;;;;5.82;3.17;;;16.20;97.30;;;16.38;76.03;97920.72;4945662;28;20221;-40
2021/07/09 01:41:36;;;;;;;4.47;3.40;;;16.30;97.50;;;16.28;76.17;97913.81;4946334;29;20047;-40
2021/07/09 01:44:04;;;;;;;5.82;3.42;;;16.20;97.60;;;16.29;76.32;97918.16;4946283;28;20057;-40
2021/07/09 01:46:34;;;;;;;4.35;3.47;;;16.20;97.80;;;16.32;76.18;97914.25;4946620;28;20047;-40
2021/07/09 01:49:03;;;;;;;6.32;3.63;;;16.20;98.00;;;16.32;76.11;97907.06;4946540;29;20265;-40
2021/07/09 01:51:31;;;;;;;5.50;3.88;;;16.20;97.80;;;16.25;76.54;97910.69;4946482;29;20047;-40
2021/07/09 01:53:59;;;;;;;5.32;4.13;;;16.10;98.50;;;16.03;77.44;97910.69;4946679;28;20253;-40
2021/07/09 01:56:27;;;;;;;5.00;3.80;;;15.90;99.50;;;16.08;76.87;97902.88;4946785;29;20051;-41
2021/07/09 01:58:55;;;;;;;5.68;3.45;;;15.90;99.60;;;16.04;77.25;97903.44;4946771;29;20051;-40
2021/07/09 02:01:23;;;;;;;5.63;4.05;;;15.90;99.40;;;16.00;77.32;97897.63;4945815;28;20054;-40
2021/07/09 02:03:51;;;;;;;7.28;3.50;;;15.90;99.80;;;16.01;77.19;97891.22;4946796;28;20055;-40
2021/07/09 02:06:19;;;;;;;5.43;3.50;;;15.90;99.70;;;16.07;77.47;97887.78;4946836;28;20051;-40
2021/07/09 02:08:47;;;;;;;4.60;3.67;;;16.00;99.70;;;16.00;77.72;97880.69;4946944;28;20055;-40
2021/07/09 02:11:15;;;;;;;5.30;3.13;;;15.90;99.90;;;16.07;77.07;97885.09;4946764;29;20077;-41
2021/07/09 02:13:43;;;;;;;4.82;3.97;;;15.90;99.80;;;16.02;77.20;97890.19;4945960;29;20081;-40
2021/07/09 02:16:11;;;;;;;4.72;3.38;;;15.80;99.70;;;15.94;77.32;97888.47;4946044;29;20057;-40
2021/07/09 02:18:39;;;;;;;5.38;3.80;;;15.80;99.50;;;16.02;77.03;97892.88;4944862;29;20078;-40
2021/07/09 02:21:07;;;;;;;5.60;3.67;;;15.90;99.60;;;15.98;77.37;97886.25;4946753;29;20353;-40
2021/07/09 02:23:35;;;;;;;5.65;3.35;;;15.90;99.20;;;15.91;77.32;97888.00;4946669;28;20060;-40
2021/07/09 02:26:03;;;;;;;4.95;3.67;;;15.80;98.90;;;15.93;77.33;97907.44;4945108;29;20053;-40
2021/07/09 02:28:31;;;;;;;4.38;2.95;;;15.80;99.30;;;15.86;77.48;97903.88;4947172;29;20268;-40
2021/07/09 02:30:59;;;;;;;6.38;3.47;;;15.80;99.40;;;15.89;77.65;97898.94;4946410;28;20074;-40
2021/07/09 02:33:26;;;;;;;7.70;4.07;;;15.80;99.50;;;15.93;76.99;97902.06;4951787;29;20188;-40
2021/07/09 02:35:55;;;;;;;5.22;3.55;;;15.80;99.10;;;15.89;77.50;97898.09;4950871;29;20057;-40
2021/07/09 02:38:22;;;;;;;6.60;3.70;;;15.80;99.60;;;15.79;77.58;97900.25;4949736;29;20057;-40
2021/07/09 02:40:50;;;;;;;5.10;3.90;;;15.70;99.60;;;15.87;77.62;97897.47;4950528;28;20067;-40
2021/07/09 02:43:18;;;;;;;4.82;3.45;;;15.80;99.20;;;15.96;77.27;97901.72;4948760;29;20047;-40
2021/07/09 02:45:46;;;;;;;5.30;3.63;;;15.80;99.30;;;15.94;77.46;97907.25;4950269;28;20055;-40
2021/07/09 02:48:18;;;;;;;5.20;4.00;;;15.90;99.00;;;15.87;77.52;97906.34;4949297;28;20069;-40
2021/07/09 02:50:47;;;;;;;6.20;4.28;;;15.80;99.00;;;15.99;77.30;97912.06;4949260;28;20212;-40
2021/07/09 02:53:15;;;;;;;5.85;3.88;;;15.90;99.20;;;15.92;77.04;97917.34;4950053;29;20047;-40
2021/07/09 02:55:43;;;;;;;5.20;3.45;;;15.80;98.70;;;15.91;76.89;97921.03;4948765;28;20055;-40
2021/07/09 02:58:11;;;;;;;4.88;3.67;;;15.80;99.10;;;15.91;77.33;97921.03;4948348;29;20065;-40
2021/07/09 03:00:40;;;;;;;6.57;3.75;;;15.80;99.20;;;15.89;77.18;97925.78;4950558;28;20050;-40
2021/07/09 03:03:08;;;;;;;6.82;4.05;;;15.80;98.70;;;15.91;77.10;97915.69;4949380;29;20059;-40
2021/07/09 03:05:36;;;;;;;5.07;3.60;;;15.90;98.70;;;15.93;77.23;97913.63;4949830;28;20066;-40
2021/07/09 03:08:05;;;;;;;8.32;4.82;;;15.90;98.60;;;16.04;76.58;97914.19;4948183;28;20256;-40
2021/07/09 03:10:33;;;;;;;5.60;4.05;;;15.90;98.80;;;16.10;76.61;97914.25;4949257;28;20358;-40
2021/07/09 03:13:01;;;;;;;5.10;3.40;;;16.00;98.10;;;15.93;77.19;97919.00;4948984;29;20265;-40
2021/07/09 03:15:29;;;;;;;5.68;4.45;;;15.80;98.10;;;15.93;76.99;97902.06;4949400;29;20073;-40
2021/07/09 03:17:57;;;;;;;6.75;3.90;;;15.90;98.60;;;15.98;77.00;97914.94;4949763;29;20241;-40
2021/07/09 03:20:25;;;;;;;6.28;4.03;;;15.90;98.50;;;15.90;77.08;97914.03;4949605;29;20105;-40
2021/07/09 03:22:52;;;;;;;6.95;3.55;;;15.90;98.20;;;15.93;76.88;97913.63;4949382;29;20055;-40
2021/07/09 03:25:20;;;;;;;7.93;3.35;;;15.80;98.30;;;15.78;77.07;97912.00;4949308;28;20066;-40
2021/07/09 03:27:49;;;;;;;5.60;3.53;;;15.70;97.90;;;15.82;77.04;97921.34;4949448;29;20062;-40
2021/07/09 03:30:17;;;;;;;6.60;3.60;;;15.80;98.10;;;15.88;77.04;97915.25;4948820;29;20241;-40
2021/07/09 03:32:45;;;;;;;6.30;4.13;;;15.80;98.40;;;15.92;76.75;97913.84;4949043;29;20058;-40
2021/07/09 03:35:14;;;;;;;5.28;4.15;;;15.90;98.20;;;15.96;76.66;97919.69;4949748;29;20062;-40
2021/07/09 03:37:42;;;;;;;7.72;4.15;;;15.90;97.70;;;15.97;76.89;97924.00;4948965;29;20060;-40
2021/07/09 03:40:11;;;;;;;10.73;3.50;;;15.90;97.40;;;16.00;76.38;97920.97;4950023;29;20508;-40
2021/07/09 03:42:39;;;;;;;7.90;3.70;;;15.90;97.40;;;15.97;76.66;97916.78;4948481;28;20047;-40
2021/07/09 03:45:07;;;;;;;7.35;4.50;;;15.90;97.20;;;15.84;76.53;97914.78;4948844;29;20066;-40
2021/07/09 03:47:35;;;;;;;4.55;3.58;;;15.80;97.20;;;15.84;76.57;97919.31;4947297;29;20047;-40
2021/07/09 03:50:05;;;;;;;5.43;3.60;;;15.80;97.30;;;15.82;76.65;97918.66;4947558;29;20070;-40
2021/07/09 03:52:33;;;;;;;4.55;3.60;;;15.80;97.20;;;15.77;76.78;97921.91;4948610;29;20073;-39
2021/07/09 03:55:02;;;;;;;6.70;3.70;;;15.70;97.40;;;15.70;76.79;97929.88;4947170;29;20226;-39
2021/07/09 03:57:30;;;;;;;5.85;3.63;;;15.70;97.40;;;15.74;76.88;97933.88;4947805;29;20065;-39
2021/07/09 03:59:58;;;;;;;4.43;3.70;;;15.70;98.20;;;15.73;76.88;97936.75;4948992;29;20059;-39
2021/07/09 04:02:26;;;;;;;10.35;3.72;;;15.70;97.80;;;15.63;77.36;97933.47;4948501;29;20051;-39
2021/07/09 04:04:54;;;;;;;3.40;3.10;;;15.60;98.10;;;15.66;77.22;97939.28;4948677;29;20047;-39
2021/07/09 04:07:21;;;;;;;6.32;3.58;;;15.70;98.10;;;15.77;76.86;97937.19;4949720;29;20353;-39
2021/07/09 04:09:49;;;;;;;5.93;3.70;;;15.70;98.00;;;15.68;76.91;97939.09;4948706;29;20043;-39
2021/07/09 04:12:17;;;;;;;5.65;4.03;;;15.70;97.30;;;15.56;77.39;97936.06;4948456;29;20249;-39
2021/07/09 04:14:45;;;;;;;4.47;3.53;;;15.60;97.80;;;15.63;77.19;97944.22;4949458;28;20391;-39
2021/07/09 04:17:13;;;;;;;5.65;3.22;;;15.60;98.30;;;15.66;77.30;97947.34;4948136;28;20063;-39
2021/07/09 04:19:41;;;;;;;4.30;3.30;;;15.70;98.10;;;15.67;77.13;97951.69;4948435;28;20063;-39
2021/07/09 04:22:09;;;;;;;5.20;3.60;;;15.70;97.90;;;15.70;76.95;97948.66;4946184;29;20353;-39
2021/07/09 04:24:37;;;;;;;4.38;3.28;;;15.70;97.80;;;15.83;76.78;97958.75;4949450;29;20059;-39
2021/07/09 04:27:05;;;;;;;6.38;3.40;;;15.80;98.10;;;15.82;76.64;97962.47;4947699;28;20256;-39
2021/07/09 04:29:33;;;;;;;6.57;3.85;;;15.80;97.80;;;15.72;77.10;97964.56;4947418;28;20062;-39
2021/07/09 04:32:00;;;;;;;5.03;3.72;;;15.70;98.10;;;15.64;77.26;97964.66;4993750;23;20056;-41
2021/07/09 04:34:28;;;;;;;4.47;3.28;;;15.60;98.40;;;15.56;77.41;97963.72;4998422;28;20056;-41
2021/07/09 04:36:56;;;;;;;5.45;3.25;;;15.50;99.00;;;15.36;77.91;97963.44;5004533;28;20447;-41
2021/07/09 04:39:24;;;;;;;5.57;3.58;;;15.30;99.80;;;15.43;77.83;97978.81;5004993;28;20493;-40
2021/07/09 04:41:53;;;;;;;6.22;4.97;;;15.30;99.90;;;15.32;78.20;97964.00;5004949;28;20060;-41
2021/07/09 04:44:21;;;;;;;5.63;3.58;;;15.20;99.90;;;15.31;78.15;97973.88;5005594;28;20064;-41
2021/07/09 04:46:49;;;;;;;4.90;3.97;;;15.20;99.90;;;15.23;78.32;97973.16;5006269;28;20056;-41
2021/07/09 04:49:17;;;;;;;5.90;4.13;;;15.10;99.90;;;15.19;78.51;97978.03;5006032;28;20050;-41
2021/07/09 04:51:45;;;;;;;4.95;3.20;;;15.10;99.90;;;15.27;78.28;97969.09;5006820;28;20056;-41
2021/07/09 04:54:13;;;;;;;6.07;4.38;;;15.20;99.90;;;15.32;78.25;97969.38;5005486;28;20339;-41
2021/07/09 04:56:41;;;;;;;6.07;4.05;;;15.30;99.90;;;15.46;78.10;97971.22;5007568;28;20350;-41
2021/07/09 04:59:09;;;;;;;6.30;3.85;;;15.40;99.90;;;15.42;77.88;97972.63;5004792;28;20049;-41
2021/07/09 05:01:37;;;;;;;6.35;3.60;;;15.40;99.80;;;15.43;77.87;97979.66;5005496;28;20045;-41
2021/07/09 05:04:07;;;;;;;4.75;3.58;;;15.40;99.80;;;15.37;78.08;97972.31;5006216;28;20064;-41
2021/07/09 05:06:36;;;;;;;5.45;4.10;;;15.40;99.70;;;15.28;78.16;97979.63;5005242;28;20050;-41
2021/07/09 05:09:05;;;;;;;4.28;3.72;;;15.30;99.60;;;15.38;77.97;97982.03;5004816;28;20563;-41
2021/07/09 05:11:34;;;;;;;7.90;3.85;;;15.40;99.40;;;15.33;78.20;97981.75;5005370;28;20335;-41
2021/07/09 05:14:03;;;;;;;17.25;4.40;;;15.30;99.70;;;15.27;78.37;97998.59;5004187;28;20060;-41
2021/07/09 05:16:34;;;;;;;5.03;3.97;;;15.30;99.50;;;15.34;78.04;97983.44;5006255;28;20046;-41
2021/07/09 05:19:04;;;;;;;9.02;4.10;;;15.30;99.70;;;15.36;78.37;97992.97;5006347;28;20058;-41
2021/07/09 05:21:32;;;;;;;4.47;3.50;;;15.40;99.70;;;15.43;78.22;97992.22;5005300;28;20046;-41
2021/07/09 05:24:05;;;;;;;5.90;4.03;;;15.40;99.40;;;15.44;78.30;97991.22;5004610;28;20056;-41
2021/07/09 05:26:34;;;;;;;5.35;3.90;;;15.40;99.80;;;15.43;78.14;98000.25;5006132;28;20060;-41
2021/07/09 05:29:04;;;;;;;7.78;4.70;;;15.40;99.40;;;15.35;78.32;98001.19;5004981;28;20057;-41
2021/07/09 05:31:34;;;;;;;5.45;3.72;;;15.30;99.80;;;15.31;78.45;98003.38;5004398;28;20073;-41
2021/07/09 05:34:02;;;;;;;4.30;3.83;;;15.30;99.90;;;15.38;78.16;98006.19;5004443;28;20068;-41
2021/07/09 05:36:30;;;;;;;5.88;4.22;;;15.40;99.90;;;15.36;78.21;98011.72;5004097;28;20351;-41
2021/07/09 05:38:58;;;;;;;5.38;4.05;;;15.40;99.50;;;15.25;78.48;98009.50;5004720;28;20056;-41
2021/07/09 05:41:26;;;;;;;4.00;3.60;;;15.30;99.70;;;15.32;78.64;98026.53;5003685;28;20050;-41
2021/07/09 05:43:54;;;;;;;5.40;4.20;;;15.40;99.80;;;15.32;78.61;98010.44;5005588;28;20080;-41
2021/07/09 05:46:22;;;;;;;4.15;3.45;;;15.40;99.90;;;15.33;78.83;98022.84;5003648;28;20061;-41
2021/07/09 05:48:50;;;;;;;5.13;4.13;;;15.40;99.90;;;15.34;78.50;98031.72;5005412;28;20049;-41
2021/07/09 05:51:18;;;;;;;4.20;3.53;;;15.40;99.90;;;15.40;78.43;98024.78;5003786;28;20058;-41
2021/07/09 05:53:45;;;;;;;6.30;4.18;;;15.40;99.90;;;15.36;78.57;98030.50;5003049;28;20054;-41
2021/07/09 05:56:13;;;;;;;7.38;4.80;;;15.40;99.90;;;15.43;78.81;98037.81;5006189;28;20054;-41
2021/07/09 05:58:41;;;;;;;7.32;4.63;;;15.40;99.90;;;15.43;78.82;98027.09;5005245;28;20219;-40
2021/07/09 06:01:09;;;;;;;6.07;4.60;;;15.40;99.90;;;15.47;78.75;98031.06;5003799;28;20061;-41
2021/07/09 06:03:37;;;;;;;5.85;5.25;;;15.40;99.90;;;15.54;78.58;98038.22;5004148;28;20377;-41
2021/07/09 06:06:05;;;;;;;5.80;4.22;;;15.50;99.90;;;15.41;78.87;98040.72;5006134;28;20060;-41
2021/07/09 06:08:33;;;;;;;5.57;4.85;;;15.40;99.90;;;15.34;78.88;98050.50;5007871;28;20058;-41
2021/07/09 06:11:01;;;;;;;8.00;4.63;;;15.40;99.70;;;15.39;78.92;98044.56;5008235;28;20058;-42
2021/07/09 06:13:29;;;;;;;6.53;5.07;;;15.40;99.90;;;15.40;78.93;98043.56;5010612;28;20419;-42
2021/07/09 06:15:57;;;;;;;6.70;5.22;;;15.40;99.90;;;15.51;78.92;98040.44;5008231;28;20471;-42
2021/07/09 06:18:25;;;;;;;8.25;4.90;;;15.50;99.90;;;15.50;78.75;98039.59;5008413;28;20064;-42
2021/07/09 06:20:53;;;;;;;6.85;5.03;;;15.50;99.90;;;15.63;78.46;98044.34;5007869;28;20084;-42
2021/07/09 06:23:24;;;;;;;6.03;4.70;;;15.70;99.90;;;15.60;78.38;98046.56;5008400;28;20049;-42
2021/07/09 06:25:52;;;;;;;6.78;5.43;;;15.60;99.90;;;15.69;78.34;98037.41;5007283;28;20050;-41
2021/07/09 06:28:19;;;;;;;6.50;5.80;;;15.70;99.90;;;15.71;78.33;98038.88;5008250;28;20113;-41
2021/07/09 06:30:48;;;;;;;7.28;4.72;;;15.80;99.40;;;15.73;78.28;98041.41;5008335;28;20049;-42
2021/07/09 06:33:16;;;;;;;6.13;4.60;;;15.80;99.70;;;15.70;78.41;98033.69;5008438;28;20238;-42
2021/07/09 06:35:44;;;;;;;6.95;5.07;;;15.80;99.90;;;15.86;78.27;98046.97;5009332;28;20060;-42
2021/07/09 06:38:12;;;;;;;5.70;5.07;;;15.90;99.80;;;15.83;78.24;98046.50;5007314;28;20259;-40
2021/07/09 06:40:43;;;;;;;5.57;4.82;;;16.00;99.00;;;15.92;78.06;98051.59;5009369;28;20049;-41
2021/07/09 06:43:12;;;;;;;5.60;4.60;;;16.00;98.90;;;15.68;78.23;98051.81;5007546;28;20058;-41
2021/07/09 06:45:41;;;;;;;7.40;5.57;;;15.80;97.90;;;15.80;78.34;98068.34;5009231;28;20267;-40
2021/07/09 06:48:09;;;;;;;7.03;5.18;;;15.90;99.20;;;15.86;78.19;98057.72;5009538;28;20056;-41
2021/07/09 06:50:37;;;;;;;6.20;5.40;;;15.90;99.30;;;16.01;77.98;98057.69;5007615;28;20470;-41
2021/07/09 06:53:05;;;;;;;5.60;4.97;;;16.10;98.70;;;15.85;78.13;98064.09;5008180;28;20348;-41
2021/07/09 06:55:33;;;;;;;9.25;5.65;;;16.00;98.20;;;15.97;77.77;98058.25;5008318;28;20050;-41
2021/07/09 06:58:01;;;;;;;6.18;5.55;;;16.10;97.80;;;15.98;77.73;98060.78;5008369;28;20061;-40
2021/07/09 07:00:29;;;;;;;5.55;5.05;;;16.10;97.50;;;16.14;77.54;98070.47;5008020;28;20254;-40
2021/07/09 07:02:57;;;;;;;7.43;5.13;;;16.30;97.10;;;16.05;77.03;98068.91;5008106;28;20208;-41
2021/07/09 07:05:29;;;;;;;7.28;5.45;;;16.30;96.40;;;16.23;77.24;98063.16;5007048;28;20367;-41
2021/07/09 07:08:10;;;;;;;8.95;4.93;;;16.30;97.90;;;16.31;77.30;98061.19;5007558;28;20050;-41
2021/07/09 07:10:38;;;;;;;6.05;5.30;;;16.50;97.50;;;16.46;77.07;98060.31;5006049;28;20080;-41
2021/07/09 07:13:06;;;;;;;7.75;5.10;;;16.70;96.90;;;16.47;76.76;98065.53;5007185;28;20057;-41
2021/07/09 07:15:34;;;;;;;6.00;5.40;;;16.70;96.10;;;16.52;76.62;98070.34;5006782;28;20061;-40
2021/07/09 07:18:08;;;;;;;6.38;4.97;;;16.70;95.40;;;16.51;76.37;98072.19;5006046;28;20239;-39
2021/07/09 07:20:40;;;;;;;7.82;5.95;;;16.70;96.10;;;16.57;76.02;98067.91;5007563;28;20058;-39
2021/07/09 07:23:15;;;;;;;7.18;5.00;;;16.80;94.40;;;16.60;75.94;98072.91;5008145;28;20109;-39
2021/07/09 07:25:48;;;;;;;10.55;5.50;;;16.90;95.20;;;16.67;76.42;98071.16;5005722;28;20061;-39
2021/07/09 07:28:16;;;;;;;6.32;4.88;;;16.90;95.30;;;16.73;76.28;98072.25;5006883;28;20058;-39
2021/07/09 07:31:04;;;;;;;6.53;4.72;;;17.00;95.10;;;16.91;76.04;98088.78;5006738;28;20057;-40
2021/07/09 07:33:32;;;;;;;6.25;4.63;;;17.20;94.90;;;16.99;75.67;98082.47;5006974;28;20049;-40
2021/07/09 07:36:14;;;;;;;6.32;5.25;;;17.30;93.90;;;17.03;75.41;98083.75;5006690;28;20212;-40
2021/07/09 07:38:47;;;;;;;5.72;5.05;;;17.30;94.00;;;17.20;75.38;98092.41;5005704;28;20053;-40
2021/07/09 07:41:17;;;;;;;5.78;5.18;;;17.50;93.20;;;17.24;74.23;98095.53;5007414;28;20248;-40
2021/07/09 07:43:46;;;;;;;8.13;5.35;;;17.60;92.50;;;17.34;74.89;98089.84;5006996;28;20050;-40
2021/07/09 07:46:16;;;;;;;5.65;4.97;;;17.60;93.10;;;17.40;74.57;98078.28;5005936;28;20041;-40
2021/07/09 07:48:44;;;;;;;7.20;5.13;;;17.70;92.60;;;17.47;74.23;98084.56;5006127;28;20060;-40
2021/07/09 07:51:12;;;;;;;7.38;5.28;;;17.80;91.00;;;17.58;74.16;98092.09;5006395;28;20052;-40
2021/07/09 07:53:42;;;;;;;6.35;4.55;;;17.90;91.80;;;17.42;73.40;98084.31;5005962;28;20050;-40
2021/07/09 07:56:12;;;;;;;9.10;5.75;;;17.70;91.10;;;17.31;72.76;98085.66;5006742;28;20049;-40
2021/07/09 07:58:40;;;;;;;6.32;4.95;;;17.60;89.10;;;17.32;73.06;98092.72;5006663;28;20244;-40
2021/07/09 08:01:08;;;;;;;7.38;4.55;;;17.50;91.50;;;17.13;72.85;98084.25;4974015;28;20060;-41
2021/07/09 08:03:38;;;;;;;5.85;4.65;;;17.30;91.00;;;17.02;72.75;98098.22;4978093;28;20050;-40
2021/07/09 08:06:07;;;;;;;7.70;5.25;;;17.30;91.20;;;17.11;72.96;98099.75;4974594;28;20047;-40
2021/07/09 08:08:36;;;;;;;9.05;5.07;;;17.30;91.10;;;17.18;72.84;98094.44;4975878;28;20466;-40
2021/07/09 08:11:05;;;;;;;5.72;3.92;;;17.40;90.80;;;17.10;72.21;98095.41;4973755;28;20070;-41
2021/07/09 08:13:33;;;;;;;5.38;4.85;;;17.40;89.30;;;17.16;73.03;98093.81;4972457;28;20260;-41
2021/07/09 08:16:01;;;;;;;6.03;4.72;;;17.40;91.10;;;17.15;72.13;98092.13;4972010;28;20042;-41
2021/07/09 08:18:29;;;;;;;7.10;5.40;;;17.50;88.60;;;17.30;72.78;98084.00;4967420;28;20054;-41
2021/07/09 08:20:57;;;;;;;7.65;4.97;;;17.50;91.20;;;17.32;72.30;98090.84;4965770;28;20363;-41
2021/07/09 08:23:27;;;;;;;8.18;4.90;;;17.50;89.50;;;17.18;71.42;98085.56;4965943;28;20552;-41
2021/07/09 08:25:57;;;;;;;5.43;4.80;;;17.50;88.20;;;17.23;71.97;98086.63;4967422;28;20073;-41
2021/07/09 08:28:29;;;;;;;6.18;4.57;;;17.50;89.00;;;17.42;72.41;98085.13;4964672;28;20050;-41
2021/07/09 08:30:57;;;;;;;5.30;4.43;;;17.70;90.50;;;17.47;71.96;98088.09;4967450;28;20259;-41
2021/07/09 08:33:25;;;;;;;20.30;5.05;;;17.80;89.30;;;17.57;71.90;98087.75;4966311;28;20058;-40
2021/07/09 08:35:53;;;;;;;7.40;5.32;;;17.90;89.30;;;17.56;71.22;98090.63;4967814;28;20093;-41
2021/07/09 08:38:21;;;;;;;9.07;6.07;;;17.90;87.10;;;17.70;71.33;98090.53;4965936;28;20051;-41
2021/07/09 08:40:50;;;;;;;7.75;5.90;;;18.00;88.50;;;17.63;71.34;98089.66;4967648;28;20070;-41
2021/07/09 08:43:33;;;;;;;8.95;5.65;;;18.00;88.10;;;17.64;70.92;98093.16;4967239;28;20062;-41
2021/07/09 08:46:01;;;;;;;8.52;5.50;;;18.00;86.80;;;17.71;70.91;98094.06;4966049;28;20360;-41
2021/07/09 08:48:30;;;;;;;6.78;4.22;;;17.90;87.50;;;17.80;70.72;98097.44;4966324;28;20404;-41
2021/07/09 08:51:00;;;;;;;6.53;5.18;;;18.10;87.50;;;17.71;70.59;98094.06;4966797;28;20058;-41
2021/07/09 08:53:28;;;;;;;5.95;4.80;;;18.00;87.60;;;17.64;70.11;98096.72;4963902;28;20061;-40
2021/07/09 08:55:57;;;;;;;7.18;5.57;;;18.00;85.80;;;17.74;69.80;98099.06;4966284;28;20051;-41
2021/07/09 08:58:25;;;;;;;7.65;5.15;;;18.10;85.70;;;17.88;70.28;98097.31;4967111;28;20058;-40
2021/07/09 09:00:54;;;;;;;6.35;4.65;;;18.30;87.00;;;18.03;70.57;98097.19;4966280;28;20069;-41
2021/07/09 09:03:26;;;;;;;6.35;5.18;;;18.50;87.20;;;18.13;70.16;98089.59;4966877;28;20626;-41
2021/07/09 09:06:00;;;;;;;7.57;5.82;;;18.60;85.90;;;18.23;69.83;98098.16;4966189;28;20051;-41
2021/07/09 09:08:32;;;;;;;5.30;4.70;;;18.80;85.30;;;18.25;69.49;98095.25;4964651;28;20046;-41
2021/07/09 09:11:02;;;;;;;6.95;5.07;;;18.70;85.00;;;18.40;69.30;98095.13;4966420;28;20396;-41
2021/07/09 09:13:35;;;;;;;6.43;5.20;;;18.90;84.70;;;18.47;68.13;98107.59;4966563;28;20222;-41
2021/07/09 09:16:07;;;;;;;7.82;5.28;;;19.10;82.20;;;18.62;68.16;98107.44;4966875;28;20051;-40
2021/07/09 09:18:42;;;;;;;7.18;4.78;;;19.20;80.80;;;18.61;67.63;98113.03;4967142;28;20047;-40
2021/07/09 09:21:16;;;;;;;6.25;4.80;;;19.20;81.70;;;18.67;67.15;98117.66;4965648;28;20051;-41
2021/07/09 09:23:51;;;;;;;;;;;19.20;81.40;;;18.60;67.00;98114.91;4965113;28;20059;-41
2021/07/09 09:26:50;;;;;;;6.30;5.18;;;19.10;81.70;;;18.53;66.04;98115.91;4966372;28;19932;-40
2021/07/09 09:29:39;;;;;;;6.10;4.85;;;19.00;80.00;;;18.58;66.33;98119.66;4967134;28;20054;-41
2021/07/09 09:32:09;;;;;;;7.05;4.78;;;19.00;80.70;;;18.76;67.34;98113.72;4966845;28;20832;-40
2021/07/09 09:34:46;;;;;;;12.13;4.75;;;19.20;82.10;;;18.79;66.08;98117.91;4965260;28;20264;-40
2021/07/09 09:37:19;;;;;;;6.45;4.78;;;19.30;81.20;;;18.94;66.53;98115.91;4965056;28;20053;-40
2021/07/09 09:39:49;;;;;;;5.18;4.63;;;19.40;82.20;;;19.01;66.32;98115.91;4966427;28;20459;-40
2021/07/09 09:42:23;;;;;;;9.20;6.03;;;19.50;80.70;;;19.01;66.00;98108.63;4964886;28;20051;-40
2021/07/09 09:45:04;;;;;;;6.68;5.32;;;19.50;78.90;;;19.06;65.89;98119.66;4967146;28;20050;-40
2021/07/09 09:47:35;;;;;;;13.93;5.57;;;19.50;80.00;;;19.08;65.31;98120.28;4966648;28;20061;-40
2021/07/09 09:50:13;;;;;;;7.75;5.22;;;19.50;79.50;;;18.96;65.50;98108.44;4966171;28;20383;-40
2021/07/09 09:52:45;;;;;;;7.72;4.80;;;19.40;78.60;;;18.89;64.27;98118.38;4965139;28;20368;-40
2021/07/09 09:55:18;;;;;;;6.78;5.03;;;19.40;77.70;;;19.01;65.30;98115.91;4965427;28;20056;-40
2021/07/09 09:57:47;;;;;;;6.65;5.25;;;19.40;79.70;;;19.04;65.05;98113.63;4966341;28;20055;-40
2021/07/09 10:00:21;;;;;;;7.00;5.13;;;19.50;79.10;;;19.18;65.29;98111.78;4966646;28;20064;-41
2021/07/09 10:02:49;;;;;;;5.82;4.57;;;19.70;79.50;;;19.31;65.06;98116.41;4965720;28;20069;-41
2021/07/09 10:05:16;;;;;;;8.13;5.22;;;19.70;79.60;;;19.34;65.10;98104.34;4967138;28;20051;-40
2021/07/09 10:07:45;;;;;;;5.82;4.40;;;19.80;79.30;;;19.40;65.13;98107.03;4966795;28;20051;-40
2021/07/09 10:10:15;;;;;;;6.38;5.38;;;19.90;79.70;;;19.36;63.70;98111.19;4966832;28;20065;-40
2021/07/09 10:13:01;;;;;;;7.78;4.80;;;19.80;76.60;;;19.36;63.71;98105.78;4966327;28;20042;-40
2021/07/09 10:15:30;;;;;;;8.18;4.65;;;19.80;77.80;;;19.41;63.33;98108.72;4966151;28;20248;-40
2021/07/09 10:17:59;;;;;;;8.85;5.22;;;19.80;76.30;;;19.50;62.94;98095.81;4966724;28;20256;-40
2021/07/09 10:20:28;;;;;;;5.47;4.97;;;19.90;75.60;;;19.52;62.83;98101.03;4964908;28;20061;-40
2021/07/09 10:22:58;;;;;;;10.73;5.60;;;19.90;76.10;;;19.62;63.18;98102.28;4965500;28;20042;-40
2021/07/09 10:25:27;;;;;;;6.53;4.45;;;20.10;76.80;;;19.62;62.64;98106.88;4964626;28;20054;-40
2021/07/09 10:27:57;;;;;;;7.13;5.40;;;20.20;75.80;;;19.47;62.96;98101.66;4966635;28;20047;-40
2021/07/09 10:30:40;;;;;;;4.78;4.22;;;20.00;76.20;;;19.65;61.87;98103.72;4964943;28;20162;-41